Etusivu
METAR-TAF:

METAR-TAF

Lentoasemat :

Brenner Field

Falls City, Nebraska, Yhdysvallat

Leveyspiiri: 40-04-44N, Pituuspiiri: 095-35-31W, korkeus merenpinnasta: 300 m

Tämänhetkinen sää

Tämä raportti tehtiin 31 minuuttia sitten, kello 12.53 UTC
Tuuli 3 kn idästä/kaakosta
Lämpötila -6°C
Kosteus 86%
Ilmanpaine 1028 hPa
Näkyvyys: 16.1 km
selkeää

METAR: KFNB 151253Z AUTO 12003KT 10SM CLR M06/M08 A3035 RMK AO2 SLP289 T10561083

Aika: 07:24 (13:24 UTC)


TAF: puuttuu

Säähavainnot ja -ennusteet yli 4000 lentoasemalta (METAR- ja TAF-raportit).

Käytössä olevat sääasemat on merkitty karttaan keltaisilla ja punaisilla pisteillä.

Aseta hiiri pisteen päälle nähdäksesi sääaseman nimen.

Klikkaa sitten nähdäksesi säähavainnot ja -ennusteet.

Kartan vaihtaminen: klikkaa mustalla rastilla varustettuja vihreitä pisteitä, niin voit zoomata sisään; viivalla varustettua vihreää pistettä, niin voit zoomata ulos tai vihreitä nuolia, niin pääset viereisille kartoille.


METAR-TAF: